Robert G. Stone, Jr. — WDD4596 — position and weather

sailwx.info

Track history (hours):
 
Tides and Currents Weather Stations Pressure Air Temp Water Temp Dewpoint Dewpoint Depression Visibility Wind Speed Wind Dir Waves Ship Positions

Robert G. Stone, Jr.

Owner: Kirby Inland Marine, LP, Houston, TX. More information available from US FCC via Universal Licensing System and Coast Guard Vessel Documentation Center.

Last reported at 2017-Sep-08 13:32 UTC. Time now 2017-Sep-24 19:14 UTC.
Position N 32°47' W 091°09'.
Warning: this ship's position is 16 days out of date.

Length 210 m; draft 2.7 m.

Type: . MMSI: 367146780.

Date/timePositionNaut miles runAvg speedWind from/ knotsBaromVisibWave heightAir tempDewpointWater temp
2017-Sep-08 13:32N 32°47' W 091°09'0 6.3
2017-Sep-08 13:30N 32°47' W 091°09'5 4.7
2017-Sep-08 12:32N 32°44' W 091°05'1 6.9
2017-Sep-08 12:26N 32°44' W 091°04'3 4.8
2017-Sep-08 11:48N 32°41' W 091°05'2 6.3
2017-Sep-08 11:31N 32°40' W 091°07'3 5.2
2017-Sep-08 11:01N 32°39' W 091°09'2 4.5
2017-Sep-08 10:30N 32°37' W 091°09'0 0.5
2017-Sep-08 10:01N 32°36' W 091°09'3 5.8
2017-Sep-08 09:30N 32°34' W 091°06'3 6.0
2017-Sep-08 09:01N 32°31' W 091°06'3 6.3
2017-Sep-08 08:30N 32°28' W 091°06'3 6.6
2017-Sep-08 08:01N 32°26' W 091°03'3 6.3
2017-Sep-08 07:31N 32°25' W 090°60'3 6.0
2017-Sep-08 07:01N 32°22' W 091°00'2 4.8
2017-Sep-08 06:31N 32°21' W 090°58'1 1.9
2017-Sep-08 06:01N 32°21' W 090°56'3 5.2
2017-Sep-08 05:30N 32°19' W 090°54'3 6.2
2017-Sep-08 05:01N 32°17' W 090°57'3 6.0
2017-Sep-08 04:30N 32°15' W 090°59'3 6.4
2017-Sep-08 04:01N 32°11' W 090°60'3 6.3
2017-Sep-08 03:31N 32°08' W 091°00'4 5.5
2017-Sep-08 02:46N 32°08' W 091°05'2 5.8
2017-Sep-08 02:31N 32°07' W 091°07'3 5.1
2017-Sep-08 01:57N 32°05' W 091°05'4 3.3
2017-Sep-08 00:46N 32°01' W 091°04'140 2.7
2017-Sep-05 21:21N 29°50' W 091°60'2 5.6
2017-Sep-05 20:59N 29°49' W 092°02'3 5.8
2017-Sep-05 20:31N 29°48' W 092°05'3 6.1
2017-Sep-05 20:00N 29°47' W 092°08'3 6.2
2017-Sep-05 19:31N 29°47' W 092°12'3 6.2
2017-Sep-05 19:01N 29°48' W 092°15'3 6.4
2017-Sep-05 18:31N 29°50' W 092°18'41 5.8
2017-Sep-05 11:29N 29°56' W 093°04'3 5.3
2017-Sep-05 11:01N 29°56' W 093°07'2 5.0
2017-Sep-05 10:30N 29°57' W 093°10'3 5.4
2017-Sep-05 10:01N 29°59' W 093°12'2 5.0
2017-Sep-05 09:30N 30°01' W 093°14'2 4.7
2017-Sep-05 09:01N 30°03' W 093°16'2 4.2
2017-Sep-05 08:31N 30°05' W 093°17'2 4.0
2017-Sep-05 08:01N 30°06' W 093°18'1 1.3
2017-Sep-05 07:30N 30°06' W 093°19'0 0.0
2017-Sep-05 07:00N 30°06' W 093°19'0 0.0
2017-Sep-05 06:31N 30°06' W 093°19'2 3.2
2017-Sep-05 06:01N 30°05' W 093°20'3 5.2
2017-Sep-05 05:31N 30°04' W 093°23'3 5.4
2017-Sep-05 05:00N 30°04' W 093°26'4 7.3
2017-Sep-05 04:30N 30°04' W 093°30'4 8.0
2017-Sep-05 04:01N 30°04' W 093°35'4 8.1
2017-Sep-05 03:30N 30°04' W 093°39'3 6.4
2017-Sep-05 02:58N 30°03' W 093°43'  
Track history (hours):
 
Tides and Currents Weather Stations Pressure Air Temp Water Temp Dewpoint Dewpoint Depression Visibility Wind Speed Wind Dir Waves Ship Positions

Robert G. Stone, Jr.

Owner: Kirby Inland Marine, LP, Houston, TX. More information available from US FCC via Universal Licensing System and Coast Guard Vessel Documentation Center.

Last reported at 2017-Sep-08 13:32 UTC. Time now 2017-Sep-24 19:14 UTC.
Position N 32°47' W 091°09'.
Warning: this ship's position is 16 days out of date.

Length 210 m; draft 2.7 m.

Type: . MMSI: 367146780.

Date/timePositionNaut miles runAvg speedWind from/ knotsBaromVisibWave heightAir tempDewpointWater temp
2017-Sep-08 13:32N 32°47' W 091°09'0 6.3
2017-Sep-08 13:30N 32°47' W 091°09'5 4.7
2017-Sep-08 12:32N 32°44' W 091°05'1 6.9
2017-Sep-08 12:26N 32°44' W 091°04'3 4.8
2017-Sep-08 11:48N 32°41' W 091°05'2 6.3
2017-Sep-08 11:31N 32°40' W 091°07'3 5.2
2017-Sep-08 11:01N 32°39' W 091°09'2 4.5
2017-Sep-08 10:30N 32°37' W 091°09'0 0.5
2017-Sep-08 10:01N 32°36' W 091°09'3 5.8
2017-Sep-08 09:30N 32°34' W 091°06'3 6.0
2017-Sep-08 09:01N 32°31' W 091°06'3 6.3
2017-Sep-08 08:30N 32°28' W 091°06'3 6.6
2017-Sep-08 08:01N 32°26' W 091°03'3 6.3
2017-Sep-08 07:31N 32°25' W 090°60'3 6.0
2017-Sep-08 07:01N 32°22' W 091°00'2 4.8
2017-Sep-08 06:31N 32°21' W 090°58'1 1.9
2017-Sep-08 06:01N 32°21' W 090°56'3 5.2
2017-Sep-08 05:30N 32°19' W 090°54'3 6.2
2017-Sep-08 05:01N 32°17' W 090°57'3 6.0
2017-Sep-08 04:30N 32°15' W 090°59'3 6.4
2017-Sep-08 04:01N 32°11' W 090°60'3 6.3
2017-Sep-08 03:31N 32°08' W 091°00'4 5.5
2017-Sep-08 02:46N 32°08' W 091°05'2 5.8
2017-Sep-08 02:31N 32°07' W 091°07'3 5.1
2017-Sep-08 01:57N 32°05' W 091°05'4 3.3
2017-Sep-08 00:46N 32°01' W 091°04'140 2.7
2017-Sep-05 21:21N 29°50' W 091°60'2 5.6
2017-Sep-05 20:59N 29°49' W 092°02'3 5.8
2017-Sep-05 20:31N 29°48' W 092°05'3 6.1
2017-Sep-05 20:00N 29°47' W 092°08'3 6.2
2017-Sep-05 19:31N 29°47' W 092°12'3 6.2
2017-Sep-05 19:01N 29°48' W 092°15'3 6.4
2017-Sep-05 18:31N 29°50' W 092°18'41 5.8
2017-Sep-05 11:29N 29°56' W 093°04'3 5.3
2017-Sep-05 11:01N 29°56' W 093°07'2 5.0
2017-Sep-05 10:30N 29°57' W 093°10'3 5.4
2017-Sep-05 10:01N 29°59' W 093°12'2 5.0
2017-Sep-05 09:30N 30°01' W 093°14'2 4.7
2017-Sep-05 09:01N 30°03' W 093°16'2 4.2
2017-Sep-05 08:31N 30°05' W 093°17'2 4.0
2017-Sep-05 08:01N 30°06' W 093°18'1 1.3
2017-Sep-05 07:30N 30°06' W 093°19'0 0.0
2017-Sep-05 07:00N 30°06' W 093°19'0 0.0
2017-Sep-05 06:31N 30°06' W 093°19'2 3.2
2017-Sep-05 06:01N 30°05' W 093°20'3 5.2
2017-Sep-05 05:31N 30°04' W 093°23'3 5.4
2017-Sep-05 05:00N 30°04' W 093°26'4 7.3
2017-Sep-05 04:30N 30°04' W 093°30'4 8.0
2017-Sep-05 04:01N 30°04' W 093°35'4 8.1
2017-Sep-05 03:30N 30°04' W 093°39'3 6.4
2017-Sep-05 02:58N 30°03' W 093°43'  

Dump ship's entire track history